createdAt,value
2023-05-10T00:01:27.810Z,55.52
2023-05-10T00:03:56.319Z,55.33
2023-05-10T00:06:24.766Z,55.48
2023-05-10T00:08:53.040Z,55.67
2023-05-10T00:11:23.197Z,55.56
2023-05-10T00:13:51.639Z,55.56
2023-05-10T00:16:20.162Z,56.09
2023-05-10T00:18:48.391Z,56.11
2023-05-10T00:21:16.527Z,56.35
2023-05-10T00:23:44.839Z,56.35
2023-05-10T00:26:13.119Z,56.58
2023-05-10T00:28:42.517Z,56.88
2023-05-10T00:31:10.797Z,56.86
2023-05-10T00:33:39.061Z,57.02
2023-05-10T00:36:08.663Z,57.44
2023-05-10T00:38:36.957Z,57.23
2023-05-10T00:41:05.324Z,57.30
2023-05-10T00:43:34.316Z,57.45
2023-05-10T00:46:02.757Z,57.79
2023-05-10T00:48:31.187Z,57.79
2023-05-10T00:50:59.852Z,57.89
2023-05-10T00:53:28.436Z,58.20
2023-05-10T00:55:56.919Z,58.25
2023-05-10T00:58:29.096Z,58.27
2023-05-10T01:00:58.342Z,58.96
2023-05-10T01:03:27.381Z,59.23
2023-05-10T01:05:56.162Z,59.47
2023-05-10T01:08:24.335Z,59.55
2023-05-10T01:10:53.734Z,59.50
2023-05-10T01:13:35.937Z,59.76
2023-05-10T01:16:04.864Z,60.24
2023-05-10T01:18:36.286Z,60.71
2023-05-10T01:21:42.332Z,61.01
2023-05-10T01:24:10.644Z,61.34
2023-05-10T01:27:16.979Z,61.74
2023-05-10T01:30:17.712Z,63.52
2023-05-10T01:33:18.756Z,65.08
2023-05-10T01:36:13.655Z,64.94
2023-05-10T01:38:51.119Z,63.83
2023-05-10T01:41:47.580Z,62.63
2023-05-10T01:44:49.297Z,62.36
2023-05-10T01:47:41.311Z,61.64
2023-05-10T01:50:17.457Z,61.05
2023-05-10T01:52:51.537Z,60.70
2023-05-10T01:55:22.372Z,59.39
2023-05-10T01:58:02.318Z,58.15
2023-05-10T02:00:31.526Z,57.81
2023-05-10T02:03:01.797Z,58.04
2023-05-10T02:05:31.239Z,58.46
2023-05-10T02:08:00.446Z,58.70
2023-05-10T02:10:29.729Z,59.31
2023-05-10T02:13:00.305Z,60.04
2023-05-10T02:15:28.943Z,60.49
2023-05-10T02:17:57.744Z,62.03
2023-05-10T02:20:26.722Z,63.94
2023-05-10T02:22:57.255Z,64.49
2023-05-10T02:25:25.938Z,64.52
2023-05-10T02:27:56.779Z,65.01
2023-05-10T02:30:25.455Z,63.80
2023-05-10T02:32:54.083Z,63.54
2023-05-10T02:35:22.418Z,63.21
2023-05-10T02:37:51.722Z,62.92
2023-05-10T02:40:21.953Z,63.10
2023-05-10T02:42:52.754Z,62.67
2023-05-10T02:45:24.830Z,62.55
2023-05-10T02:47:53.538Z,62.29
2023-05-10T02:50:23.526Z,61.88
2023-05-10T02:52:55.504Z,61.83
2023-05-10T02:55:27.284Z,62.13
2023-05-10T02:57:59.787Z,61.97
2023-05-10T03:00:28.204Z,61.81
2023-05-10T03:02:57.052Z,61.66
2023-05-10T03:05:25.692Z,61.40
2023-05-10T03:07:54.254Z,61.36
2023-05-10T03:10:27.032Z,61.08
2023-05-10T03:13:18.832Z,61.16
2023-05-10T03:16:01.614Z,61.12
2023-05-10T03:18:55.096Z,61.09
2023-05-10T03:21:27.618Z,60.83
2023-05-10T03:24:16.711Z,60.72
2023-05-10T03:26:46.578Z,60.66
2023-05-10T03:29:18.555Z,60.51
2023-05-10T03:31:47.272Z,60.72
2023-05-10T03:34:16.019Z,60.72
2023-05-10T03:36:44.299Z,60.62
2023-05-10T03:39:12.674Z,60.42
2023-05-10T03:41:41.256Z,60.60
2023-05-10T03:44:10.248Z,60.70
2023-05-10T03:46:38.553Z,60.57
2023-05-10T03:49:07.101Z,60.52
2023-05-10T03:51:35.581Z,60.32
2023-05-10T03:54:03.970Z,59.93
2023-05-10T03:56:32.751Z,58.84
2023-05-10T03:59:02.050Z,57.54
2023-05-10T04:01:32.574Z,57.45
2023-05-10T04:04:00.946Z,58.28
2023-05-10T04:06:29.491Z,58.68
2023-05-10T04:09:01.103Z,58.89
2023-05-10T04:11:29.254Z,59.52
2023-05-10T04:13:57.736Z,60.10
2023-05-10T04:16:26.048Z,60.63
2023-05-10T04:18:54.389Z,60.66
2023-05-10T04:21:22.968Z,60.87
2023-05-10T04:23:51.245Z,61.03
2023-05-10T04:26:19.426Z,61.33
2023-05-10T04:28:48.000Z,62.91
2023-05-10T04:31:16.238Z,63.97
2023-05-10T04:33:44.385Z,63.74
2023-05-10T04:36:12.925Z,62.78
2023-05-10T04:38:41.208Z,61.91
2023-05-10T04:41:10.911Z,61.02
2023-05-10T04:43:39.626Z,59.95
2023-05-10T04:46:11.232Z,58.09
2023-05-10T04:48:39.415Z,57.58
2023-05-10T04:51:07.810Z,57.60
2023-05-10T04:53:36.065Z,57.71
2023-05-10T04:56:04.758Z,57.99
2023-05-10T04:58:32.919Z,58.23
2023-05-10T05:01:11.721Z,58.24
2023-05-10T05:03:40.029Z,58.45
2023-05-10T05:06:08.407Z,58.95
2023-05-10T05:08:36.774Z,59.10
2023-05-10T05:11:04.952Z,59.13
2023-05-10T05:13:33.224Z,59.67
2023-05-10T05:16:03.966Z,59.57
2023-05-10T05:18:32.133Z,59.74
2023-05-10T05:21:00.514Z,59.49
2023-05-10T05:23:28.888Z,59.62
2023-05-10T05:25:57.158Z,59.52
2023-05-10T05:28:25.373Z,59.28
2023-05-10T05:30:53.911Z,58.96
2023-05-10T05:33:21.985Z,58.45
2023-05-10T05:35:51.892Z,59.09
2023-05-10T05:38:20.066Z,58.41
2023-05-10T05:40:48.444Z,58.11
2023-05-10T05:43:16.718Z,58.58
2023-05-10T05:45:45.213Z,57.98
2023-05-10T05:48:13.438Z,57.80
2023-05-10T05:50:41.642Z,56.97
2023-05-10T05:53:10.222Z,57.54
2023-05-10T05:55:38.400Z,56.90
2023-05-10T05:58:06.568Z,56.86
2023-05-10T06:00:34.962Z,56.54
2023-05-10T06:03:03.301Z,56.21
2023-05-10T06:05:31.699Z,55.82
2023-05-10T06:08:01.602Z,55.81
2023-05-10T06:10:29.795Z,55.40
2023-05-10T06:12:57.982Z,55.14
2023-05-10T06:15:26.456Z,55.08
2023-05-10T06:17:54.852Z,55.04
2023-05-10T06:20:23.211Z,55.51
2023-05-10T06:22:51.475Z,55.07
2023-05-10T06:25:19.834Z,55.58
2023-05-10T06:27:51.741Z,54.54
2023-05-10T06:30:24.308Z,54.22
2023-05-10T06:32:53.045Z,53.39
2023-05-10T06:35:21.444Z,53.53
2023-05-10T06:37:50.452Z,53.96
2023-05-10T06:40:19.434Z,53.75
2023-05-10T06:42:49.027Z,53.34
2023-05-10T06:45:17.645Z,52.92
2023-05-10T06:47:46.987Z,52.25
2023-05-10T06:50:15.294Z,52.15
2023-05-10T06:52:44.195Z,51.85
2023-05-10T06:55:12.658Z,52.16
2023-05-10T06:57:40.830Z,51.93
2023-05-10T07:00:10.914Z,51.88
2023-05-10T07:02:39.235Z,51.87
2023-05-10T07:05:07.993Z,51.58
2023-05-10T07:07:36.290Z,51.47
2023-05-10T07:10:05.046Z,52.32
2023-05-10T07:12:33.402Z,52.45
2023-05-10T07:15:01.621Z,51.54
2023-05-10T07:17:29.885Z,51.22
2023-05-10T07:19:58.271Z,50.90
2023-05-10T07:22:26.658Z,50.56
2023-05-10T07:24:55.566Z,50.75
2023-05-10T07:27:23.708Z,50.65
2023-05-10T07:29:51.883Z,50.87
2023-05-10T07:32:20.094Z,50.63
2023-05-10T07:34:48.328Z,50.21
2023-05-10T07:37:16.608Z,49.23
2023-05-10T07:39:44.877Z,49.09
2023-05-10T07:42:13.047Z,49.53
2023-05-10T07:44:41.331Z,48.64
2023-05-10T07:47:09.704Z,48.48
2023-05-10T07:49:37.975Z,48.96
2023-05-10T07:52:06.253Z,48.50
2023-05-10T07:54:34.936Z,48.46
2023-05-10T07:57:03.309Z,47.87
2023-05-10T07:59:31.591Z,47.92
2023-05-10T08:01:59.854Z,48.43
2023-05-10T08:04:28.153Z,47.66
2023-05-10T08:06:56.512Z,47.23
2023-05-10T08:09:25.445Z,47.32
2023-05-10T08:11:53.780Z,46.44
2023-05-10T08:14:22.051Z,46.68
2023-05-10T08:16:50.234Z,46.94
2023-05-10T08:19:22.589Z,46.65
2023-05-10T08:21:50.868Z,47.17
2023-05-10T08:24:19.141Z,46.13
2023-05-10T08:26:47.418Z,46.18
2023-05-10T08:29:16.518Z,47.03
2023-05-10T08:31:44.810Z,45.37
2023-05-10T08:34:13.017Z,45.02
2023-05-10T08:36:41.338Z,45.21
2023-05-10T08:39:22.837Z,44.60
2023-05-10T08:42:03.695Z,44.14
2023-05-10T08:44:37.359Z,44.60
2023-05-10T08:47:08.267Z,44.18
2023-05-10T08:49:36.707Z,44.02
2023-05-10T08:52:06.676Z,44.16
2023-05-10T08:54:35.564Z,44.01
2023-05-10T08:57:04.297Z,44.42
2023-05-10T08:59:33.084Z,43.35
2023-05-10T09:02:01.869Z,42.89
2023-05-10T09:04:30.728Z,43.10
2023-05-10T09:06:59.248Z,43.32
2023-05-10T09:09:28.648Z,43.30
2023-05-10T09:11:57.036Z,42.98
2023-05-10T09:14:26.216Z,43.23
2023-05-10T09:16:56.412Z,43.20
2023-05-10T09:19:24.910Z,42.62
2023-05-10T09:21:52.986Z,42.85
2023-05-10T09:24:26.580Z,42.70
2023-05-10T09:26:54.652Z,41.53
2023-05-10T09:29:22.827Z,42.35
2023-05-10T09:31:52.842Z,42.17
2023-05-10T09:34:24.393Z,41.28
2023-05-10T09:36:54.205Z,40.72
2023-05-10T09:39:22.578Z,40.50
2023-05-10T09:41:50.750Z,40.38
2023-05-10T09:44:20.256Z,40.68
2023-05-10T09:46:52.321Z,40.87
2023-05-10T09:49:22.542Z,39.89
2023-05-10T09:52:07.723Z,39.33
2023-05-10T09:54:36.144Z,38.74
2023-05-10T09:57:04.563Z,38.85
2023-05-10T09:59:36.025Z,38.25
2023-05-10T10:02:04.543Z,38.78
2023-05-10T10:04:33.885Z,38.71
2023-05-10T10:07:06.374Z,37.90
2023-05-10T10:09:35.671Z,37.76
2023-05-10T10:12:04.944Z,37.43
2023-05-10T10:14:33.146Z,36.52
2023-05-10T10:19:35.506Z,35.52
2023-05-10T10:22:04.122Z,34.63
2023-05-10T10:24:32.995Z,33.89
2023-05-10T10:27:27.380Z,33.76
2023-05-10T10:30:10.924Z,34.03
2023-05-10T10:33:27.404Z,32.54
2023-05-10T10:35:59.790Z,32.69
2023-05-10T10:39:00.790Z,31.76
2023-05-10T10:41:44.156Z,31.86
2023-05-10T10:44:37.922Z,31.03
2023-05-10T10:47:25.313Z,31.12
2023-05-10T10:50:03.872Z,30.91
2023-05-10T10:52:38.703Z,30.94
2023-05-10T10:55:13.770Z,30.32
2023-05-10T10:57:42.241Z,29.96
2023-05-10T11:00:38.590Z,29.86
2023-05-10T11:03:08.803Z,29.35
2023-05-10T11:05:40.438Z,27.65
2023-05-10T11:08:11.563Z,27.11
2023-05-10T11:10:40.615Z,27.41
2023-05-10T11:13:11.795Z,27.73
2023-05-10T11:15:41.089Z,26.98
2023-05-10T11:18:29.907Z,27.06
2023-05-10T11:21:11.703Z,27.49
2023-05-10T11:23:57.401Z,27.23
2023-05-10T11:26:27.338Z,26.45
2023-05-10T11:28:56.641Z,26.39
2023-05-10T11:31:25.171Z,25.95
2023-05-10T11:33:57.893Z,24.73
2023-05-10T11:36:37.242Z,25.35
2023-05-10T11:39:06.357Z,25.23
2023-05-10T11:41:34.910Z,25.59
2023-05-10T11:44:03.411Z,26.19
2023-05-10T11:46:31.776Z,27.01
2023-05-10T11:49:03.110Z,28.11
2023-05-10T11:51:34.971Z,27.43
2023-05-10T11:54:09.560Z,26.54
2023-05-10T11:56:41.459Z,26.44
2023-05-10T11:59:09.728Z,25.61
2023-05-10T12:01:38.117Z,25.53
2023-05-10T12:04:06.487Z,25.10
2023-05-10T12:06:39.873Z,25.67
2023-05-10T12:09:09.213Z,25.63
2023-05-10T12:11:44.070Z,25.23
2023-05-10T12:14:13.096Z,25.16
2023-05-10T12:16:41.857Z,25.30
2023-05-10T12:19:10.220Z,25.51
2023-05-10T12:21:40.067Z,25.78
2023-05-10T12:24:08.751Z,25.76
2023-05-10T12:26:37.434Z,25.65
2023-05-10T12:29:22.811Z,25.23
2023-05-10T12:31:52.060Z,24.94
2023-05-10T12:34:32.205Z,24.30
2023-05-10T12:37:01.573Z,24.60
2023-05-10T12:39:44.872Z,24.27
2023-05-10T12:42:13.391Z,24.53
2023-05-10T12:44:41.857Z,24.54
2023-05-10T12:47:10.036Z,24.65
2023-05-10T12:49:38.297Z,24.87
2023-05-10T12:52:06.697Z,24.82
2023-05-10T12:54:34.957Z,24.33
2023-05-10T12:57:03.227Z,23.33
2023-05-10T12:59:31.606Z,23.68
2023-05-10T13:01:59.775Z,23.86
2023-05-10T13:04:28.397Z,23.26
2023-05-10T13:07:00.130Z,23.55
2023-05-10T13:09:32.084Z,24.07
2023-05-10T13:12:00.760Z,23.86
2023-05-10T13:14:29.233Z,24.35
2023-05-10T13:16:57.667Z,24.88
2023-05-10T13:19:27.319Z,25.30
2023-05-10T13:21:56.006Z,25.77
2023-05-10T13:24:24.925Z,25.68
2023-05-10T13:26:53.688Z,26.06
2023-05-10T13:29:23.594Z,26.75
2023-05-10T13:31:52.276Z,26.66
2023-05-10T13:34:24.053Z,27.18
2023-05-10T13:36:54.152Z,27.63
2023-05-10T13:39:22.434Z,28.28
2023-05-10T13:41:50.916Z,28.92
2023-05-10T13:44:19.286Z,30.16
2023-05-10T13:46:47.782Z,30.02
2023-05-10T13:49:16.551Z,30.43
2023-05-10T13:51:45.236Z,30.78
2023-05-10T13:54:13.733Z,31.64
2023-05-10T13:56:43.733Z,31.79
2023-05-10T13:59:12.013Z,31.80
2023-05-10T14:01:40.317Z,32.56
2023-05-10T14:04:11.660Z,32.68
2023-05-10T14:06:40.240Z,32.95
2023-05-10T14:09:08.698Z,33.13
2023-05-10T14:11:37.078Z,33.21
2023-05-10T14:14:05.339Z,33.66
2023-05-10T14:16:34.121Z,32.81
2023-05-10T14:19:03.149Z,32.89
2023-05-10T14:21:32.006Z,33.19
2023-05-10T14:24:00.488Z,33.46
2023-05-10T14:26:29.070Z,33.45
2023-05-10T14:28:57.765Z,33.86
2023-05-10T14:31:26.905Z,33.90
2023-05-10T14:33:55.324Z,34.36
2023-05-10T14:36:23.916Z,34.41
2023-05-10T14:38:52.798Z,34.80
2023-05-10T14:41:21.181Z,33.98
2023-05-10T14:43:49.550Z,33.25
2023-05-10T14:46:18.120Z,32.13
2023-05-10T14:48:46.509Z,32.07
2023-05-10T14:51:14.882Z,31.79
2023-05-10T14:53:43.774Z,31.19
2023-05-10T14:56:12.063Z,31.52
2023-05-10T14:58:40.627Z,31.41
2023-05-10T15:01:09.242Z,29.90
2023-05-10T15:03:38.610Z,29.36
2023-05-10T15:06:08.960Z,28.98
2023-05-10T15:08:37.304Z,28.95
2023-05-10T15:11:06.097Z,29.30
2023-05-10T15:13:34.480Z,29.53
2023-05-10T15:16:03.354Z,29.65
2023-05-10T15:18:31.683Z,30.12
2023-05-10T15:21:00.244Z,31.08
2023-05-10T15:23:28.697Z,30.50
2023-05-10T15:25:58.541Z,30.12
2023-05-10T15:28:27.154Z,29.93
2023-05-10T15:30:55.398Z,29.93
2023-05-10T15:33:24.465Z,29.73
2023-05-10T15:35:54.973Z,29.74
2023-05-10T15:38:23.782Z,30.13
2023-05-10T15:40:52.153Z,29.34
2023-05-10T15:43:20.421Z,28.67
2023-05-10T15:45:49.211Z,28.78
2023-05-10T15:48:18.210Z,28.60
2023-05-10T15:50:46.492Z,28.39
2023-05-10T15:53:15.278Z,28.61
2023-05-10T15:55:44.058Z,27.57
2023-05-10T15:58:12.445Z,27.35
2023-05-10T16:00:41.802Z,26.66
2023-05-10T16:03:10.142Z,26.61
2023-05-10T16:05:38.695Z,26.50
2023-05-10T16:08:07.072Z,26.31
2023-05-10T16:10:35.347Z,25.97
2023-05-10T16:13:04.131Z,25.88
2023-05-10T16:15:33.039Z,26.38
2023-05-10T16:18:01.660Z,26.69
2023-05-10T16:20:30.495Z,26.64
2023-05-10T16:23:03.510Z,26.79
2023-05-10T16:25:33.085Z,27.09
2023-05-10T16:28:02.695Z,27.37
2023-05-10T16:30:31.688Z,27.69
2023-05-10T16:33:01.122Z,28.33
2023-05-10T16:35:31.180Z,28.86
2023-05-10T16:38:00.118Z,29.39
2023-05-10T16:40:29.849Z,29.97
2023-05-10T16:43:00.430Z,30.75
2023-05-10T16:45:32.292Z,31.61
2023-05-10T16:48:02.117Z,32.15
2023-05-10T16:50:31.709Z,32.74
2023-05-10T16:53:01.517Z,33.46
2023-05-10T16:55:33.554Z,33.24
2023-05-10T16:58:03.183Z,33.72
2023-05-10T17:00:33.200Z,34.44
2023-05-10T17:03:01.973Z,34.56
2023-05-10T17:05:30.875Z,35.12
2023-05-10T17:07:59.150Z,34.82
2023-05-10T17:10:27.531Z,34.92
2023-05-10T17:12:57.268Z,34.99
2023-05-10T17:15:25.784Z,34.94
2023-05-10T17:17:54.176Z,35.17
2023-05-10T17:20:22.589Z,35.20
2023-05-10T17:22:51.054Z,35.79
2023-05-10T17:25:19.967Z,35.77
2023-05-10T17:27:48.628Z,36.17
2023-05-10T17:30:19.559Z,36.39
2023-05-10T17:32:48.694Z,36.41
2023-05-10T17:35:18.670Z,37.07
2023-05-10T17:37:50.479Z,36.68
2023-05-10T17:40:21.987Z,36.78
2023-05-10T17:42:50.458Z,37.18
2023-05-10T17:45:19.354Z,37.42
2023-05-10T17:47:48.780Z,37.83
2023-05-10T17:50:21.047Z,37.82
2023-05-10T17:52:49.392Z,38.05
2023-05-10T17:55:18.380Z,38.23
2023-05-10T17:57:48.167Z,38.62
2023-05-10T18:00:17.696Z,38.62
2023-05-10T18:02:46.404Z,39.09
2023-05-10T18:05:17.493Z,39.17
2023-05-10T18:07:47.463Z,39.28
2023-05-10T18:10:16.528Z,39.80
2023-05-10T18:12:45.928Z,39.95
2023-05-10T18:15:14.914Z,40.03
2023-05-10T18:17:43.305Z,40.19
2023-05-10T18:20:12.238Z,40.47
2023-05-10T18:22:41.697Z,41.11
2023-05-10T18:25:10.599Z,41.81
2023-05-10T18:27:41.805Z,42.98
2023-05-10T18:30:12.630Z,43.64
2023-05-10T18:32:42.387Z,43.90
2023-05-10T18:35:11.989Z,44.37
2023-05-10T18:37:41.677Z,45.59
2023-05-10T18:40:13.439Z,46.24
2023-05-10T18:42:43.351Z,46.82
2023-05-10T18:45:12.666Z,47.15
2023-05-10T18:47:41.997Z,48.57
2023-05-10T18:50:15.693Z,48.72
2023-05-10T18:52:45.655Z,48.07
2023-05-10T18:55:14.716Z,48.22
2023-05-10T18:57:45.487Z,47.74
2023-05-10T19:00:14.198Z,48.37
2023-05-10T19:02:43.189Z,50.71
2023-05-10T19:05:13.573Z,51.16
2023-05-10T19:07:44.036Z,51.65
2023-05-10T19:10:13.944Z,52.13
2023-05-10T19:12:43.797Z,53.13
2023-05-10T19:15:12.218Z,53.13
2023-05-10T19:17:41.344Z,53.81
2023-05-10T19:20:10.784Z,54.87
2023-05-10T19:25:13.424Z,56.43
2023-05-10T19:27:41.582Z,56.31
2023-05-10T19:30:11.594Z,55.36
2023-05-10T19:32:40.165Z,56.77
2023-05-10T19:35:09.162Z,55.91
2023-05-10T19:37:37.342Z,57.99
2023-05-10T19:40:06.544Z,58.85
2023-05-10T19:42:35.013Z,59.34
2023-05-10T19:45:03.594Z,59.64
2023-05-10T19:47:31.933Z,59.93
2023-05-10T19:50:00.338Z,60.40
2023-05-10T19:52:28.730Z,60.58
2023-05-10T19:54:57.411Z,60.66
2023-05-10T19:57:25.582Z,62.10
2023-05-10T19:59:53.754Z,64.17
2023-05-10T20:02:21.926Z,64.05
2023-05-10T20:04:50.414Z,63.85
2023-05-10T20:07:18.678Z,62.92
2023-05-10T20:09:46.851Z,62.47
2023-05-10T20:12:15.225Z,61.74
2023-05-10T20:14:43.302Z,61.67
2023-05-10T20:17:11.622Z,62.25
2023-05-10T20:19:39.867Z,62.11
2023-05-10T20:22:09.541Z,61.97
2023-05-10T20:24:37.623Z,62.23
2023-05-10T20:27:05.798Z,62.39
2023-05-10T20:29:34.078Z,62.15
2023-05-10T20:32:02.457Z,62.20
2023-05-10T20:34:31.240Z,62.26
2023-05-10T20:36:59.412Z,62.64
2023-05-10T20:39:27.688Z,62.96
2023-05-10T20:41:55.854Z,63.05
2023-05-10T20:44:24.131Z,62.91
2023-05-10T20:46:52.508Z,62.39
2023-05-10T20:49:20.796Z,61.80
2023-05-10T20:51:49.161Z,61.84
2023-05-10T20:54:17.332Z,61.53
2023-05-10T20:56:45.714Z,61.55
2023-05-10T20:59:14.082Z,61.89
2023-05-10T21:01:42.418Z,62.39
2023-05-10T21:04:11.150Z,62.40
2023-05-10T21:06:39.321Z,61.87
2023-05-10T21:09:07.595Z,61.64
2023-05-10T21:11:36.289Z,61.80
2023-05-10T21:14:05.272Z,60.85
2023-05-10T21:16:33.498Z,61.03
2023-05-10T21:19:02.231Z,61.11
2023-05-10T21:21:30.710Z,61.03
2023-05-10T21:23:58.883Z,60.64
2023-05-10T21:26:27.060Z,60.78
2023-05-10T21:28:55.231Z,60.38
2023-05-10T21:31:23.485Z,61.59
2023-05-10T21:33:51.781Z,61.19
2023-05-10T21:36:20.206Z,60.43
2023-05-10T21:38:50.619Z,59.45
2023-05-10T21:41:18.854Z,57.53
2023-05-10T21:43:47.030Z,56.61
2023-05-10T21:46:15.520Z,57.34
2023-05-10T21:48:43.688Z,57.78
2023-05-10T21:51:12.164Z,58.77
2023-05-10T21:53:40.642Z,58.76
2023-05-10T21:56:08.809Z,59.21
2023-05-10T21:58:37.087Z,59.37
2023-05-10T22:01:05.574Z,59.60
2023-05-10T22:03:33.761Z,60.25
2023-05-10T22:06:02.019Z,61.86
2023-05-10T22:08:30.186Z,62.92
2023-05-10T22:10:58.460Z,60.94
2023-05-10T22:13:26.932Z,57.96
2023-05-10T22:15:55.113Z,55.89
2023-05-10T22:18:23.354Z,55.63
2023-05-10T22:20:51.657Z,55.71
2023-05-10T22:23:19.946Z,55.31
2023-05-10T22:25:48.106Z,55.13
2023-05-10T22:28:16.586Z,54.97
2023-05-10T22:30:44.815Z,54.77
2023-05-10T22:33:13.131Z,54.64
2023-05-10T22:35:41.305Z,54.54
2023-05-10T22:38:09.491Z,54.57
2023-05-10T22:40:37.653Z,54.31
2023-05-10T22:43:05.929Z,54.76
2023-05-10T22:45:34.101Z,54.79
2023-05-10T22:48:05.295Z,54.75
2023-05-10T22:50:33.511Z,54.92
2023-05-10T22:53:01.893Z,54.98
2023-05-10T22:55:30.586Z,55.45
2023-05-10T22:57:58.748Z,55.57
2023-05-10T23:00:27.333Z,55.49
2023-05-10T23:02:56.009Z,54.89
2023-05-10T23:05:24.396Z,54.67
2023-05-10T23:07:53.805Z,54.79
2023-05-10T23:10:22.477Z,54.90
2023-05-10T23:12:50.856Z,54.81
2023-05-10T23:15:19.130Z,54.82
2023-05-10T23:17:48.074Z,55.01
2023-05-10T23:20:17.275Z,55.13
2023-05-10T23:22:45.796Z,55.45
2023-05-10T23:25:14.280Z,55.03
2023-05-10T23:27:42.551Z,55.19
2023-05-10T23:30:11.583Z,55.13
2023-05-10T23:32:39.859Z,55.45
2023-05-10T23:35:09.117Z,56.16
2023-05-10T23:37:37.395Z,57.42
2023-05-10T23:40:06.873Z,57.83
2023-05-10T23:42:35.071Z,58.02
2023-05-10T23:45:04.942Z,58.53
2023-05-10T23:47:33.191Z,59.32
2023-05-10T23:50:01.739Z,60.30
2023-05-10T23:52:30.142Z,60.71
2023-05-10T23:54:58.491Z,62.02
2023-05-10T23:57:26.770Z,63.48
2023-05-10T23:59:55.041Z,63.51
